createdAt,value
2023-07-26T00:02:22.787Z,4.10
2023-07-26T00:04:50.697Z,4.00
2023-07-26T00:07:18.725Z,3.30
2023-07-26T00:09:46.689Z,3.90
2023-07-26T00:12:14.867Z,3.40
2023-07-26T00:14:42.906Z,3.60
2023-07-26T00:17:11.008Z,3.90
2023-07-26T00:19:39.117Z,4.00
2023-07-26T00:22:07.044Z,3.70
2023-07-26T00:24:35.124Z,4.00
2023-07-26T00:27:03.397Z,3.80
2023-07-26T00:29:31.907Z,3.50
2023-07-26T00:31:59.943Z,3.80
2023-07-26T00:34:27.855Z,3.70
2023-07-26T00:36:55.772Z,4.40
2023-07-26T00:39:23.687Z,3.90
2023-07-26T00:41:51.577Z,4.20
2023-07-26T00:44:19.574Z,5.10
2023-07-26T00:46:47.963Z,4.40
2023-07-26T00:49:17.102Z,4.40
2023-07-26T00:51:45.123Z,4.70
2023-07-26T00:54:13.032Z,4.50
2023-07-26T00:56:41.415Z,4.20
2023-07-26T00:59:09.672Z,4.50
2023-07-26T01:01:38.033Z,4.70
2023-07-26T01:04:06.092Z,4.70
2023-07-26T01:06:48.345Z,4.00
2023-07-26T01:09:47.852Z,4.20
2023-07-26T01:12:22.952Z,4.00
2023-07-26T01:14:59.302Z,3.50
2023-07-26T01:17:27.508Z,4.30
2023-07-26T01:19:55.964Z,3.60
2023-07-26T01:22:23.976Z,4.70
2023-07-26T01:24:51.971Z,4.10
2023-07-26T01:27:19.953Z,4.10
2023-07-26T01:29:52.019Z,4.10
2023-07-26T01:32:22.318Z,4.40
2023-07-26T01:34:50.973Z,3.90
2023-07-26T01:37:22.124Z,4.80
2023-07-26T01:39:50.970Z,4.50
2023-07-26T01:42:19.658Z,4.10
2023-07-26T01:44:47.716Z,4.60
2023-07-26T01:47:15.676Z,4.20
2023-07-26T01:49:43.701Z,4.10
2023-07-26T01:52:11.618Z,4.70
2023-07-26T01:54:39.547Z,4.60
2023-07-26T01:57:07.858Z,4.30
2023-07-26T01:59:35.835Z,3.60
2023-07-26T02:02:03.931Z,4.00
2023-07-26T02:04:32.007Z,4.60
2023-07-26T02:07:00.201Z,4.60
2023-07-26T02:09:28.102Z,4.60
2023-07-26T02:11:56.073Z,4.40
2023-07-26T02:14:24.083Z,4.60
2023-07-26T02:16:52.012Z,4.40
2023-07-26T02:19:19.976Z,3.70
2023-07-26T02:21:48.155Z,4.60
2023-07-26T02:24:16.453Z,4.50
2023-07-26T02:26:44.450Z,3.90
2023-07-26T02:29:12.366Z,4.60
2023-07-26T02:31:40.289Z,4.00
2023-07-26T02:34:08.501Z,5.10
2023-07-26T02:36:36.469Z,4.00
2023-07-26T02:39:05.361Z,4.60
2023-07-26T02:41:34.015Z,4.70
2023-07-26T02:44:02.333Z,3.90
2023-07-26T02:46:30.450Z,4.50
2023-07-26T02:48:58.627Z,3.90
2023-07-26T02:51:26.537Z,4.20
2023-07-26T02:53:54.710Z,4.40
2023-07-26T02:56:22.680Z,4.40
2023-07-26T02:58:50.778Z,3.90
2023-07-26T03:01:19.063Z,3.80
2023-07-26T03:03:47.173Z,4.40
2023-07-26T03:06:15.674Z,4.40
2023-07-26T03:08:43.598Z,4.30
2023-07-26T03:11:11.767Z,4.40
2023-07-26T03:13:40.197Z,4.20
2023-07-26T03:16:08.319Z,4.30
2023-07-26T03:18:36.340Z,4.60
2023-07-26T03:21:04.401Z,4.50
2023-07-26T03:23:32.575Z,4.10
2023-07-26T03:26:00.448Z,4.20
2023-07-26T03:28:29.334Z,3.70
2023-07-26T03:30:57.448Z,4.00
2023-07-26T03:33:26.241Z,4.60
2023-07-26T03:35:54.564Z,4.20
2023-07-26T03:38:22.731Z,4.40
2023-07-26T03:40:50.661Z,4.30
2023-07-26T03:43:18.675Z,4.50
2023-07-26T03:45:46.905Z,4.40
2023-07-26T03:48:15.157Z,4.80
2023-07-26T03:50:43.184Z,4.20
2023-07-26T03:53:11.156Z,4.40
2023-07-26T03:55:39.129Z,4.30
2023-07-26T03:58:07.102Z,4.10
2023-07-26T04:00:35.095Z,4.80
2023-07-26T04:03:03.146Z,4.60
2023-07-26T04:05:31.442Z,4.50
2023-07-26T04:07:59.522Z,3.80
2023-07-26T04:10:28.300Z,4.10
2023-07-26T04:12:56.491Z,4.60
2023-07-26T04:15:24.690Z,4.30
2023-07-26T04:17:52.851Z,4.10
2023-07-26T04:20:20.990Z,5.20
2023-07-26T04:22:49.062Z,4.80
2023-07-26T04:25:17.182Z,5.00
2023-07-26T04:27:45.208Z,5.50
2023-07-26T04:30:13.270Z,4.50
2023-07-26T04:32:41.373Z,4.90
2023-07-26T04:35:09.764Z,4.90
2023-07-26T04:37:38.096Z,4.70
2023-07-26T04:40:06.976Z,4.40
2023-07-26T04:42:35.990Z,4.70
2023-07-26T04:45:04.509Z,4.40
2023-07-26T04:47:34.810Z,5.40
2023-07-26T04:50:02.900Z,4.90
2023-07-26T04:52:30.831Z,4.20
2023-07-26T04:55:00.425Z,4.10
2023-07-26T04:57:28.400Z,4.40
2023-07-26T04:59:57.629Z,4.00
2023-07-26T05:02:25.896Z,3.60
2023-07-26T05:04:53.949Z,3.20
2023-07-26T05:07:21.914Z,3.20
2023-07-26T05:09:49.820Z,2.80
2023-07-26T05:12:17.949Z,3.70
2023-07-26T05:14:46.016Z,3.20
2023-07-26T05:17:14.107Z,2.70
2023-07-26T05:19:42.261Z,2.70
2023-07-26T05:22:12.318Z,2.40
2023-07-26T05:24:40.739Z,2.40
2023-07-26T05:27:08.727Z,2.50
2023-07-26T05:29:36.695Z,2.20
2023-07-26T05:32:04.887Z,2.40
2023-07-26T05:34:32.808Z,2.10
2023-07-26T05:37:00.667Z,2.40
2023-07-26T05:39:28.767Z,2.00
2023-07-26T05:41:56.732Z,2.00
2023-07-26T05:44:25.012Z,1.80
2023-07-26T05:46:53.030Z,1.90
2023-07-26T05:49:21.359Z,1.50
2023-07-26T05:51:49.424Z,2.20
2023-07-26T05:54:17.391Z,1.50
2023-07-26T05:56:45.363Z,1.60
2023-07-26T05:59:13.838Z,1.80
2023-07-26T06:01:41.827Z,1.80
2023-07-26T06:04:10.428Z,2.10
2023-07-26T06:06:38.484Z,1.90
2023-07-26T06:09:06.640Z,1.90
2023-07-26T06:11:43.749Z,1.90
2023-07-26T06:14:19.739Z,2.10
2023-07-26T06:16:47.705Z,1.90
2023-07-26T06:19:15.882Z,1.90
2023-07-26T06:21:44.006Z,1.40
2023-07-26T06:24:12.072Z,1.50
2023-07-26T06:26:39.969Z,1.80
2023-07-26T06:29:08.109Z,1.90
2023-07-26T06:31:36.485Z,1.60
2023-07-26T06:34:04.506Z,2.20
2023-07-26T06:36:32.524Z,2.10
2023-07-26T06:39:00.494Z,2.20
2023-07-26T06:41:28.723Z,1.70
2023-07-26T06:43:56.841Z,2.00
2023-07-26T06:46:25.009Z,1.70
2023-07-26T06:48:53.084Z,1.70
2023-07-26T06:51:21.121Z,1.70
2023-07-26T06:53:49.126Z,1.50
2023-07-26T06:56:17.144Z,1.50
2023-07-26T06:58:45.265Z,1.70
2023-07-26T07:01:18.752Z,1.60
2023-07-26T07:03:47.016Z,1.70
2023-07-26T07:06:17.154Z,1.60
2023-07-26T07:08:45.131Z,1.40
2023-07-26T07:11:13.091Z,1.80
2023-07-26T07:13:41.162Z,1.60
2023-07-26T07:16:09.196Z,1.60
2023-07-26T07:18:37.322Z,1.90
2023-07-26T07:21:05.523Z,1.60
2023-07-26T07:23:33.779Z,1.60
2023-07-26T07:26:01.777Z,1.50
2023-07-26T07:28:29.851Z,1.70
2023-07-26T07:30:57.810Z,1.50
2023-07-26T07:33:25.853Z,1.50
2023-07-26T07:35:53.901Z,1.70
2023-07-26T07:38:21.971Z,1.70
2023-07-26T07:40:50.372Z,1.80
2023-07-26T07:43:18.623Z,1.50
2023-07-26T07:45:46.626Z,1.50
2023-07-26T07:48:14.767Z,1.70
2023-07-26T07:50:42.838Z,1.60
2023-07-26T07:53:11.964Z,1.60
2023-07-26T07:55:41.326Z,1.90
2023-07-26T07:58:09.513Z,1.70
2023-07-26T08:00:37.778Z,1.70
2023-07-26T08:03:06.525Z,1.40
2023-07-26T08:05:34.998Z,1.60
2023-07-26T08:08:03.612Z,2.20
2023-07-26T08:10:31.905Z,2.60
2023-07-26T08:12:59.974Z,3.00
2023-07-26T08:15:34.062Z,2.40
2023-07-26T08:18:02.594Z,2.90
2023-07-26T08:20:35.505Z,2.50
2023-07-26T08:23:05.812Z,2.70
2023-07-26T08:25:34.765Z,2.90
2023-07-26T08:28:02.780Z,2.60
2023-07-26T08:30:31.314Z,3.00
2023-07-26T08:32:59.423Z,2.40
2023-07-26T08:35:27.522Z,2.80
2023-07-26T08:37:55.529Z,3.00
2023-07-26T08:40:24.984Z,3.00
2023-07-26T08:42:53.501Z,3.00
2023-07-26T08:45:22.182Z,3.50
2023-07-26T08:47:51.042Z,3.20
2023-07-26T08:50:19.471Z,3.40
2023-07-26T08:52:48.561Z,3.40
2023-07-26T08:55:17.755Z,3.50
2023-07-26T08:57:45.827Z,3.70
2023-07-26T09:00:14.509Z,3.90
2023-07-26T09:02:46.848Z,3.80
2023-07-26T09:05:15.159Z,3.90
2023-07-26T09:07:43.652Z,4.20
2023-07-26T09:10:11.710Z,3.30
2023-07-26T09:12:39.778Z,4.00
2023-07-26T09:15:09.660Z,4.00
2023-07-26T09:17:42.029Z,3.30
2023-07-26T09:20:26.361Z,3.80
2023-07-26T09:34:37.093Z,3.00
2023-07-26T09:37:05.329Z,2.90
2023-07-26T09:39:34.524Z,2.80
2023-07-26T09:42:08.356Z,2.60
2023-07-26T09:44:37.841Z,3.00
2023-07-26T09:47:07.096Z,3.30
2023-07-26T09:49:44.607Z,2.80
2023-07-26T09:54:44.089Z,2.60
2023-07-26T09:57:14.205Z,2.30
2023-07-26T09:59:43.985Z,2.40
2023-07-26T10:02:13.527Z,2.50
2023-07-26T10:04:53.054Z,2.60
2023-07-26T10:07:24.040Z,2.10
2023-07-26T10:09:53.872Z,2.30
2023-07-26T10:12:27.274Z,2.10
2023-07-26T10:14:57.790Z,2.30
2023-07-26T10:17:27.952Z,1.80
2023-07-26T10:19:56.834Z,2.20
2023-07-26T10:22:25.282Z,1.90
2023-07-26T10:24:53.420Z,2.10
2023-07-26T10:27:23.605Z,2.00
2023-07-26T10:29:51.644Z,2.50
2023-07-26T10:32:19.714Z,2.30
2023-07-26T10:34:58.660Z,2.00
2023-07-26T10:37:35.189Z,2.20
2023-07-26T10:40:32.774Z,2.30
2023-07-26T10:43:17.758Z,2.10
2023-07-26T10:45:45.832Z,2.20
2023-07-26T10:48:37.976Z,2.20
2023-07-26T10:51:27.360Z,2.60
2023-07-26T10:53:55.486Z,1.80
2023-07-26T10:56:31.878Z,2.10
2023-07-26T10:59:06.296Z,2.20
2023-07-26T11:01:39.210Z,2.50
2023-07-26T11:04:21.564Z,2.50
2023-07-26T11:06:58.861Z,1.80
2023-07-26T11:09:29.561Z,2.10
2023-07-26T11:12:01.709Z,2.60
2023-07-26T11:14:34.631Z,2.40
2023-07-26T11:17:17.313Z,2.40
2023-07-26T11:19:47.389Z,2.50
2023-07-26T11:22:15.612Z,2.70
2023-07-26T11:24:43.662Z,2.40
2023-07-26T11:27:11.790Z,2.60
2023-07-26T11:29:39.847Z,2.30
2023-07-26T11:32:08.646Z,2.50
2023-07-26T11:34:36.752Z,2.90
2023-07-26T11:37:16.239Z,3.10
2023-07-26T11:39:44.310Z,2.60
2023-07-26T11:42:17.251Z,3.50
2023-07-26T11:44:45.288Z,2.80
2023-07-26T11:47:13.455Z,2.20
2023-07-26T11:49:41.554Z,3.00
2023-07-26T11:52:18.132Z,2.50
2023-07-26T11:54:57.216Z,2.90
2023-07-26T11:57:29.682Z,2.80
2023-07-26T12:00:05.842Z,3.10
2023-07-26T12:02:35.099Z,3.10
2023-07-26T12:05:17.469Z,3.50
2023-07-26T12:07:51.154Z,3.30
2023-07-26T12:10:48.103Z,4.00
2023-07-26T12:13:23.746Z,3.60
2023-07-26T12:16:01.768Z,3.70
2023-07-26T12:18:30.111Z,3.50
2023-07-26T12:21:14.463Z,4.10
2023-07-26T12:24:11.065Z,3.90
2023-07-26T12:26:45.746Z,3.10
2023-07-26T12:29:13.920Z,2.50
2023-07-26T12:31:42.318Z,2.40
2023-07-26T12:34:15.078Z,3.10
2023-07-26T12:36:43.437Z,2.70
2023-07-26T12:39:16.623Z,2.90
2023-07-26T12:41:46.578Z,3.10
2023-07-26T12:44:17.475Z,3.10
2023-07-26T12:47:22.856Z,3.00
2023-07-26T12:49:35.704Z,4.00
2023-07-26T12:52:03.782Z,3.40
2023-07-26T12:54:31.931Z,4.10
2023-07-26T12:56:59.910Z,3.70
2023-07-26T12:59:27.832Z,4.00
2023-07-26T13:01:55.859Z,3.60
2023-07-26T13:04:24.031Z,3.90
2023-07-26T13:06:52.199Z,4.50
2023-07-26T13:09:20.214Z,3.60
2023-07-26T13:11:48.994Z,4.40
2023-07-26T13:14:17.376Z,4.30
2023-07-26T13:16:46.366Z,4.40
2023-07-26T13:19:14.237Z,4.10
2023-07-26T13:21:42.306Z,4.50
2023-07-26T13:24:11.602Z,4.30
2023-07-26T13:26:39.534Z,4.30
2023-07-26T13:29:07.669Z,3.90
2023-07-26T13:31:36.295Z,3.60
2023-07-26T13:34:04.435Z,4.20
2023-07-26T13:36:32.815Z,3.60
2023-07-26T13:39:01.087Z,4.00
2023-07-26T13:41:29.139Z,3.80
2023-07-26T13:43:57.214Z,3.90
2023-07-26T13:46:35.275Z,3.70
2023-07-26T13:49:05.669Z,4.10
2023-07-26T13:51:34.387Z,3.90
2023-07-26T13:54:02.505Z,3.50
2023-07-26T13:56:30.985Z,3.30
2023-07-26T13:58:59.462Z,2.90
2023-07-26T14:01:27.914Z,3.70
2023-07-26T14:03:55.951Z,3.50
2023-07-26T14:06:27.282Z,3.60
2023-07-26T14:08:56.282Z,3.60
2023-07-26T14:11:25.142Z,3.60
2023-07-26T14:13:53.491Z,3.10
2023-07-26T14:16:23.353Z,3.10
2023-07-26T14:18:52.272Z,3.40
2023-07-26T14:21:20.450Z,3.60
2023-07-26T14:23:48.661Z,3.50
2023-07-26T14:26:16.683Z,3.30
2023-07-26T14:28:45.028Z,3.30
2023-07-26T14:31:13.577Z,3.80
2023-07-26T14:33:41.608Z,3.80
2023-07-26T14:36:09.783Z,3.40
2023-07-26T14:38:38.419Z,3.40
2023-07-26T14:41:06.697Z,3.00
2023-07-26T14:43:34.451Z,3.60
2023-07-26T14:46:02.527Z,3.80
2023-07-26T14:48:30.391Z,4.10
2023-07-26T14:50:58.261Z,4.00
2023-07-26T14:53:26.262Z,4.30
2023-07-26T14:55:54.107Z,4.70
2023-07-26T14:58:22.071Z,4.30
2023-07-26T15:00:49.829Z,4.40
2023-07-26T15:03:17.642Z,4.60
2023-07-26T15:05:46.308Z,4.50
2023-07-26T15:08:14.321Z,5.00
2023-07-26T15:10:42.470Z,4.60
2023-07-26T15:13:10.368Z,4.40
2023-07-26T15:15:43.190Z,4.90
2023-07-26T15:18:11.412Z,4.70
2023-07-26T15:20:40.062Z,3.80
2023-07-26T15:23:08.177Z,3.70
2023-07-26T15:25:36.158Z,3.80
2023-07-26T15:28:04.570Z,3.60
2023-07-26T15:30:36.093Z,3.70
2023-07-26T15:33:04.576Z,3.10
2023-07-26T15:35:37.710Z,3.30
2023-07-26T15:38:06.610Z,2.70
2023-07-26T15:43:22.925Z,3.60
2023-07-26T15:48:21.961Z,2.60
2023-07-26T15:53:22.320Z,2.90
2023-07-26T15:55:53.285Z,3.10
2023-07-26T15:58:27.791Z,3.20
2023-07-26T16:00:57.326Z,3.20
2023-07-26T16:10:57.765Z,3.00
2023-07-26T16:13:25.537Z,3.50
2023-07-26T16:23:27.527Z,3.00
2023-07-26T16:25:55.260Z,2.60
2023-07-26T16:28:23.391Z,2.80
2023-07-26T16:30:51.285Z,3.30
2023-07-26T16:33:19.034Z,2.40
2023-07-26T16:35:46.805Z,2.50
2023-07-26T16:38:14.527Z,2.70
2023-07-26T16:40:42.636Z,2.40
2023-07-26T16:43:10.308Z,3.20
2023-07-26T16:45:38.485Z,2.70
2023-07-26T16:48:06.275Z,3.00
2023-07-26T16:50:34.800Z,2.60
2023-07-26T16:53:02.747Z,4.00
2023-07-26T16:55:30.555Z,3.10
2023-07-26T16:57:58.194Z,2.70
2023-07-26T17:00:26.097Z,3.10
2023-07-26T17:02:53.955Z,3.00
2023-07-26T17:05:22.928Z,3.10
2023-07-26T17:07:50.644Z,3.10
2023-07-26T17:10:18.377Z,3.10
2023-07-26T17:12:46.119Z,3.40
2023-07-26T17:15:13.951Z,3.40
2023-07-26T17:17:41.792Z,3.20
2023-07-26T17:20:10.009Z,3.30
2023-07-26T17:22:37.966Z,3.20
2023-07-26T17:25:07.999Z,3.40
2023-07-26T17:27:35.740Z,3.10
2023-07-26T17:30:04.211Z,3.30
2023-07-26T17:32:31.969Z,3.40
2023-07-26T17:35:00.369Z,3.60
2023-07-26T17:37:29.160Z,3.60
2023-07-26T17:39:57.638Z,3.20
2023-07-26T17:42:25.468Z,3.00
2023-07-26T17:44:55.470Z,3.40
2023-07-26T17:47:23.485Z,3.50
2023-07-26T17:49:52.596Z,3.50
2023-07-26T17:52:20.541Z,3.30
2023-07-26T17:54:49.064Z,3.30
2023-07-26T17:57:25.195Z,3.50
2023-07-26T17:59:53.362Z,3.40
2023-07-26T18:02:24.750Z,3.70
2023-07-26T18:04:53.237Z,3.70
2023-07-26T18:07:21.106Z,3.40
2023-07-26T18:09:48.931Z,3.70
2023-07-26T18:12:17.050Z,3.70
2023-07-26T18:14:45.311Z,3.40
2023-07-26T18:17:14.238Z,4.00
2023-07-26T18:19:42.396Z,3.80
2023-07-26T18:22:11.820Z,3.80
2023-07-26T18:24:41.771Z,3.60
2023-07-26T18:27:10.052Z,4.00
2023-07-26T18:29:38.800Z,4.30
2023-07-26T18:32:07.474Z,4.40
2023-07-26T18:34:36.036Z,4.20
2023-07-26T18:37:03.840Z,4.30
2023-07-26T18:39:31.550Z,4.20
2023-07-26T18:41:59.236Z,4.10
2023-07-26T18:44:27.099Z,4.30
2023-07-26T18:46:56.166Z,4.00
2023-07-26T18:49:24.506Z,3.90
2023-07-26T18:51:52.285Z,4.50
2023-07-26T18:54:20.021Z,4.20
2023-07-26T18:56:47.857Z,4.80
2023-07-26T18:59:15.566Z,5.10
2023-07-26T19:01:43.406Z,4.40
2023-07-26T19:04:11.141Z,5.10
2023-07-26T19:06:38.839Z,4.90
2023-07-26T19:09:06.555Z,5.50
2023-07-26T19:11:34.383Z,5.30
2023-07-26T19:14:02.129Z,4.70
2023-07-26T19:16:29.951Z,5.00
2023-07-26T19:18:57.835Z,5.10
2023-07-26T19:21:25.507Z,5.80
2023-07-26T19:23:53.864Z,5.20
2023-07-26T19:26:23.270Z,5.40
2023-07-26T19:28:51.441Z,5.20
2023-07-26T19:31:19.354Z,5.60
2023-07-26T19:33:47.650Z,5.50
2023-07-26T19:36:19.091Z,5.70
2023-07-26T19:38:48.086Z,6.20
2023-07-26T19:41:19.947Z,5.80
2023-07-26T19:43:51.287Z,5.40
2023-07-26T19:46:19.550Z,6.00
2023-07-26T19:48:49.655Z,5.50
2023-07-26T19:51:19.558Z,6.40
2023-07-26T19:53:48.008Z,5.80
2023-07-26T19:56:19.365Z,6.80
2023-07-26T19:58:48.374Z,6.70
2023-07-26T20:01:16.956Z,6.30
2023-07-26T20:03:45.137Z,6.60
2023-07-26T20:06:20.632Z,7.30
2023-07-26T20:08:50.514Z,6.40
2023-07-26T20:11:19.922Z,7.20
2023-07-26T20:13:49.782Z,7.80
2023-07-26T20:16:45.751Z,7.00
2023-07-26T20:19:17.992Z,7.80
2023-07-26T20:21:47.092Z,7.80
2023-07-26T20:24:17.198Z,7.70
2023-07-26T20:26:48.338Z,8.00
2023-07-26T20:29:16.325Z,7.50
2023-07-26T20:31:44.520Z,7.20
2023-07-26T20:34:12.158Z,6.90
2023-07-26T20:36:40.412Z,7.10
2023-07-26T20:39:08.093Z,7.00
2023-07-26T20:41:35.761Z,6.70
2023-07-26T20:44:03.490Z,6.50
2023-07-26T20:46:31.202Z,6.50
2023-07-26T20:48:59.027Z,7.60
2023-07-26T20:51:26.742Z,7.90
2023-07-26T20:53:54.381Z,7.60
2023-07-26T20:56:22.117Z,7.30
2023-07-26T20:58:49.789Z,6.40
2023-07-26T21:01:17.755Z,7.20
2023-07-26T21:03:45.557Z,7.90
2023-07-26T21:06:14.463Z,7.30
2023-07-26T21:08:43.987Z,8.70
2023-07-26T21:11:11.891Z,7.80
2023-07-26T21:13:39.670Z,7.30
2023-07-26T21:16:07.422Z,7.80
2023-07-26T21:18:35.172Z,8.00
2023-07-26T21:21:02.899Z,7.80
2023-07-26T21:23:30.997Z,7.60
2023-07-26T21:25:59.586Z,7.00
2023-07-26T21:28:28.992Z,7.40
2023-07-26T21:30:56.748Z,7.90
2023-07-26T21:33:24.980Z,7.80
2023-07-26T21:35:58.219Z,6.90
2023-07-26T21:38:26.719Z,7.90
2023-07-26T21:40:55.827Z,7.30
2023-07-26T21:43:23.850Z,7.90
2023-07-26T21:45:54.700Z,8.60
2023-07-26T21:48:23.072Z,6.90
2023-07-26T21:50:51.141Z,8.10
2023-07-26T21:53:20.025Z,7.90
2023-07-26T21:55:48.516Z,8.00
2023-07-26T21:58:29.477Z,7.60
2023-07-26T22:00:58.802Z,8.30
2023-07-26T22:03:26.784Z,8.80
2023-07-26T22:05:54.928Z,7.90
2023-07-26T22:08:22.850Z,8.90
2023-07-26T22:10:50.872Z,7.50
2023-07-26T22:13:18.601Z,7.80
2023-07-26T22:15:47.967Z,8.40
2023-07-26T22:18:15.926Z,7.30
2023-07-26T22:21:01.838Z,7.70
2023-07-26T22:23:32.615Z,8.20
2023-07-26T22:26:12.942Z,7.70
2023-07-26T22:28:42.776Z,9.00
2023-07-26T22:31:10.769Z,9.00
2023-07-26T22:33:38.890Z,7.90
2023-07-26T22:36:07.023Z,7.90
2023-07-26T22:38:35.108Z,8.10
2023-07-26T22:41:06.600Z,7.70
2023-07-26T22:43:34.507Z,8.40
2023-07-26T22:46:02.936Z,8.40
2023-07-26T22:48:30.684Z,8.60
2023-07-26T22:50:58.466Z,7.90
2023-07-26T22:53:26.310Z,8.90
2023-07-26T22:55:53.961Z,7.80
2023-07-26T22:58:21.875Z,8.00
2023-07-26T23:00:49.661Z,7.50
2023-07-26T23:03:17.435Z,9.40
2023-07-26T23:05:45.250Z,8.20
2023-07-26T23:08:12.937Z,7.90
2023-07-26T23:10:40.585Z,9.70
2023-07-26T23:13:08.253Z,8.40
2023-07-26T23:15:36.401Z,9.00
2023-07-26T23:18:04.182Z,8.40
2023-07-26T23:20:31.935Z,8.00
2023-07-26T23:22:59.660Z,7.70
2023-07-26T23:25:27.368Z,8.30
2023-07-26T23:27:55.120Z,8.30
2023-07-26T23:30:22.876Z,8.00
2023-07-26T23:32:51.816Z,8.10
2023-07-26T23:35:19.722Z,8.70
2023-07-26T23:37:47.488Z,8.60
2023-07-26T23:40:15.226Z,8.00
2023-07-26T23:42:42.904Z,8.60
2023-07-26T23:45:12.164Z,7.60
2023-07-26T23:47:39.871Z,7.80
2023-07-26T23:50:07.910Z,8.90
2023-07-26T23:52:35.574Z,8.20
2023-07-26T23:55:04.161Z,8.40
2023-07-26T23:57:31.954Z,9.20
2023-07-26T23:59:59.985Z,8.80
